Time;durP1;ratioP1;P1;durP2;ratioP2;P2;SDS_P1;SDS_P2;PMS_P1;PMS_P2;Temp;Humidity;BMP_temperature;BMP_pressure;BME280_temperature;BME280_humidity;BME280_pressure;Samples;Min_cycle;Max_cycle;Signal;HPM_P1;HPM_P2
2023/05/02 00:01:06;;;;;;;36.20;26.67;;;15.10;99.90;;;;;;5032585;28;20091;-65
2023/05/02 00:03:32;;;;;;;43.17;27.77;;;15.10;99.90;;;;;;5032659;28;20030;-66
2023/05/02 00:05:59;;;;;;;33.83;24.05;;;15.20;99.90;;;;;;5032553;28;20410;-66
2023/05/02 00:08:25;;;;;;;30.70;24.50;;;15.00;99.90;;;;;;5032889;28;20033;-66
2023/05/02 00:10:51;;;;;;;28.92;23.40;;;15.10;99.90;;;;;;5032454;28;20021;-66
2023/05/02 00:13:16;;;;;;;30.08;23.73;;;14.80;99.90;;;;;;5032727;28;20033;-66
2023/05/02 00:15:42;;;;;;;28.73;23.10;;;14.90;99.90;;;;;;5032012;28;20018;-66
2023/05/02 00:18:07;;;;;;;36.22;26.15;;;14.90;99.90;;;;;;5032755;28;20041;-66
2023/05/02 00:20:33;;;;;;;30.60;22.58;;;14.90;99.90;;;;;;5031225;28;20542;-66
2023/05/02 00:22:59;;;;;;;34.55;25.25;;;14.80;99.90;;;;;;5032563;28;20365;-65
2023/05/02 00:25:25;;;;;;;35.45;26.50;;;14.80;99.90;;;;;;5032299;28;20064;-66
2023/05/02 00:27:51;;;;;;;31.63;25.55;;;14.90;99.90;;;;;;5031126;28;20495;-66
2023/05/02 00:30:17;;;;;;;35.88;27.65;;;14.90;99.90;;;;;;5032099;28;20429;-66
2023/05/02 00:32:43;;;;;;;35.88;26.98;;;14.80;99.90;;;;;;5063929;28;20132;-66
2023/05/02 00:35:09;;;;;;;36.75;27.25;;;15.00;99.90;;;;;;5032309;28;20093;-65
2023/05/02 00:37:35;;;;;;;43.28;30.27;;;15.00;99.90;;;;;;5033165;28;20398;-65
2023/05/02 00:40:02;;;;;;;42.15;29.23;;;14.90;99.90;;;;;;5035709;28;20099;-66
2023/05/02 00:42:30;;;;;;;37.67;27.98;;;14.90;99.90;;;;;;5067968;28;20038;-65
2023/05/02 00:44:56;;;;;;;30.05;25.42;;;14.90;99.90;;;;;;5035940;28;20079;-65
2023/05/02 00:47:22;;;;;;;41.17;29.48;;;14.80;99.90;;;;;;5035865;28;20025;-65
2023/05/02 00:49:49;;;;;;;40.47;29.20;;;14.80;99.90;;;;;;5035616;28;20026;-65
2023/05/02 00:52:15;;;;;;;47.05;32.25;;;14.80;99.90;;;;;;5033916;28;20115;-65
2023/05/02 00:54:42;;;;;;;38.72;30.70;;;14.90;99.90;;;;;;5035932;28;20060;-65
2023/05/02 00:57:07;;;;;;;32.20;25.13;;;14.90;99.90;;;;;;5035538;28;20040;-64
2023/05/02 00:59:36;;;;;;;35.30;25.75;;;14.80;99.90;;;;;;5035985;28;20420;-65
2023/05/02 01:02:11;;;;;;;37.17;26.25;;;14.80;99.90;;;;;;5035514;28;20050;-64
2023/05/02 01:04:43;;;;;;;39.13;27.42;;;14.70;99.90;;;;;;5035693;28;20022;-64
2023/05/02 01:10:58;;;;;;;42.05;28.48;;;14.90;99.90;;;;;;5023290;28;20060;-65
2023/05/02 01:13:30;;;;;;;36.10;25.35;;;14.90;99.90;;;;;;5034188;28;20045;-65
2023/05/02 01:15:59;;;;;;;35.47;26.60;;;14.80;99.90;;;;;;5033928;28;20060;-64
2023/05/02 01:18:29;;;;;;;35.58;25.33;;;14.90;99.90;;;;;;5034164;28;20128;-64
2023/05/02 01:21:02;;;;;;;32.83;24.50;;;14.80;99.90;;;;;;5034847;28;20471;-64
2023/05/02 01:23:39;;;;;;;34.42;25.25;;;14.80;99.90;;;;;;5034059;28;20087;-65
2023/05/02 01:26:23;;;;;;;39.13;27.08;;;14.80;99.90;;;;;;5034715;28;20045;-64
2023/05/02 01:28:59;;;;;;;39.47;26.38;;;14.70;99.90;;;;;;5035461;28;20026;-65
2023/05/02 01:31:27;;;;;;;37.92;25.10;;;14.70;99.90;;;;;;5022522;28;20027;-64
2023/05/02 01:33:55;;;;;;;32.15;23.08;;;14.80;99.90;;;;;;5035581;28;20056;-64
2023/05/02 01:36:25;;;;;;;32.45;23.95;;;14.60;99.90;;;;;;5034802;28;20051;-64
2023/05/02 01:38:51;;;;;;;25.83;20.77;;;14.80;99.90;;;;;;5034569;28;20067;-64
2023/05/02 01:41:17;;;;;;;26.33;20.63;;;14.70;99.90;;;;;;5034036;28;20059;-64
2023/05/02 01:43:45;;;;;;;30.00;22.55;;;14.60;99.90;;;;;;5035215;28;20050;-64
2023/05/02 01:46:13;;;;;;;23.63;18.25;;;14.60;99.90;;;;;;5034542;28;20053;-63
2023/05/02 01:48:43;;;;;;;25.88;21.05;;;14.60;99.90;;;;;;5034498;28;20033;-64
2023/05/02 01:51:10;;;;;;;20.63;17.73;;;14.60;99.90;;;;;;5034373;28;20032;-64
2023/05/02 01:53:38;;;;;;;20.80;17.23;;;14.50;99.90;;;;;;5034806;28;20040;-63
2023/05/02 01:56:05;;;;;;;18.85;15.70;;;14.50;99.90;;;;;;5034590;28;20165;-63
2023/05/02 01:58:32;;;;;;;19.13;15.80;;;14.60;99.90;;;;;;5028328;28;20038;-63
2023/05/02 02:01:00;;;;;;;21.75;15.38;;;14.60;99.90;;;;;;5027177;28;20059;-63
2023/05/02 02:03:28;;;;;;;18.58;14.57;;;14.50;99.90;;;;;;5039080;28;20022;-64
2023/05/02 02:05:55;;;;;;;22.95;16.70;;;14.60;99.90;;;;;;5050051;28;20017;-64
2023/05/02 02:08:21;;;;;;;18.33;14.25;;;14.70;99.90;;;;;;5034759;28;20352;-64
2023/05/02 02:10:59;;;;;;;17.48;14.48;;;14.60;99.90;;;;;;5040899;28;20024;-63
2023/05/02 02:13:37;;;;;;;15.18;12.13;;;14.60;99.90;;;;;;5036263;28;20033;-64
2023/05/02 02:16:06;;;;;;;13.38;11.63;;;14.60;99.90;;;;;;5034628;28;20021;-64
2023/05/02 02:18:36;;;;;;;15.55;11.85;;;14.60;99.90;;;;;;5032518;28;20076;-64
2023/05/02 02:21:10;;;;;;;11.50;10.23;;;14.60;99.90;;;;;;5040974;28;20029;-64
2023/05/02 02:23:37;;;;;;;10.57;9.48;;;14.60;99.90;;;;;;5034295;28;20065;-64
2023/05/02 02:26:05;;;;;;;14.02;11.48;;;14.50;99.90;;;;;;5034042;28;20013;-64
2023/05/02 02:28:32;;;;;;;15.40;12.73;;;14.40;99.90;;;;;;5065727;28;20025;-63
2023/05/02 02:30:58;;;;;;;14.70;11.43;;;14.50;99.90;;;;;;5034125;28;20035;-64
2023/05/02 02:33:29;;;;;;;12.50;11.20;;;14.40;99.90;;;;;;5033922;28;20021;-63
2023/05/02 02:36:12;;;;;;;12.30;10.70;;;14.40;99.90;;;;;;5036963;28;20082;-64
2023/05/02 02:38:53;;;;;;;12.23;10.77;;;14.50;99.90;;;;;;5025211;28;20064;-63
2023/05/02 02:41:30;;;;;;;11.27;9.48;;;14.50;99.90;;;;;;5032311;28;20029;-63
2023/05/02 02:44:04;;;;;;;11.80;10.55;;;14.50;99.90;;;;;;5034217;28;20055;-63
2023/05/02 02:47:29;;;;;;;14.75;11.52;;;14.50;99.90;;;;;;5033827;28;20052;-63
2023/05/02 02:50:00;;;;;;;11.57;9.73;;;14.50;99.90;;;;;;5018692;28;20037;-63
2023/05/02 02:52:39;;;;;;;12.43;10.02;;;14.50;99.90;;;;;;5031608;28;20045;-63
2023/05/02 02:55:21;;;;;;;12.52;10.05;;;14.50;99.90;;;;;;5032939;28;20030;-63
2023/05/02 02:57:57;;;;;;;10.23;9.23;;;14.50;99.90;;;;;;5033029;28;20483;-63
2023/05/02 03:00:27;;;;;;;10.52;9.43;;;14.50;99.90;;;;;;5031420;28;20367;-63
2023/05/02 03:02:53;;;;;;;10.25;9.05;;;14.30;99.90;;;;;;5033103;28;20052;-63
2023/05/02 03:05:21;;;;;;;12.00;9.52;;;14.30;99.90;;;;;;5033761;28;20108;-62
2023/05/02 03:07:46;;;;;;;14.27;11.45;;;14.40;99.90;;;;;;5033203;28;20036;-63
2023/05/02 03:10:12;;;;;;;16.60;12.43;;;14.10;99.90;;;;;;5037630;28;20021;-63
2023/05/02 03:12:42;;;;;;;18.60;13.70;;;14.20;99.90;;;;;;5037680;28;20482;-63
2023/05/02 03:15:44;;;;;;;17.38;13.63;;;14.30;99.90;;;;;;5033358;28;20087;-63
2023/05/02 03:18:10;;;;;;;25.60;17.05;;;14.00;99.90;;;;;;5033020;28;20037;-63
2023/05/02 03:20:41;;;;;;;21.83;16.35;;;14.20;99.90;;;;;;5033340;28;20029;-62
2023/05/02 03:23:07;;;;;;;23.25;17.08;;;14.20;99.90;;;;;;5032848;28;20037;-63
2023/05/02 03:25:33;;;;;;;20.42;16.50;;;14.20;99.90;;;;;;5033056;28;20027;-62
2023/05/02 03:27:59;;;;;;;24.27;18.05;;;14.20;99.90;;;;;;5032446;28;20025;-62
2023/05/02 03:30:25;;;;;;;20.27;17.48;;;13.80;99.90;;;;;;5032850;28;20170;-62
2023/05/02 03:32:51;;;;;;;24.30;18.33;;;14.10;99.90;;;;;;5032850;28;20444;-62
2023/05/02 03:35:17;;;;;;;19.27;16.20;;;14.10;99.90;;;;;;5032819;28;20407;-63
2023/05/02 03:37:43;;;;;;;22.00;16.08;;;14.20;99.90;;;;;;5032990;28;20038;-63
2023/05/02 03:40:09;;;;;;;22.67;16.58;;;14.10;99.90;;;;;;5033040;28;20411;-62
2023/05/02 03:42:41;;;;;;;22.85;17.25;;;14.10;99.90;;;;;;5032436;28;20026;-62
2023/05/02 03:45:07;;;;;;;22.83;16.45;;;14.30;99.90;;;;;;5032667;28;20064;-62
2023/05/02 03:47:58;;;;;;;15.95;14.25;;;14.10;99.90;;;;;;5033444;28;20543;-62
2023/05/02 03:50:24;;;;;;;16.80;13.85;;;14.10;99.90;;;;;;5034701;28;20037;-63
2023/05/02 03:52:49;;;;;;;16.70;13.00;;;14.00;99.90;;;;;;5029805;28;20395;-63
2023/05/02 03:55:15;;;;;;;11.63;10.13;;;14.10;99.90;;;;;;5032826;28;20072;-64
2023/05/02 03:57:41;;;;;;;11.48;10.27;;;13.90;99.90;;;;;;5030737;28;20510;-63
2023/05/02 04:00:07;;;;;;;9.30;8.38;;;13.90;99.90;;;;;;5032616;28;20029;-64
2023/05/02 04:02:32;;;;;;;13.13;10.25;;;13.50;99.90;;;;;;5032206;28;20025;-63
2023/05/02 04:08:32;;;;;;;9.57;8.57;;;13.70;99.90;;;;;;5026253;28;20040;-64
2023/05/02 04:10:58;;;;;;;7.85;7.03;;;13.90;99.90;;;;;;5032252;28;20025;-64
2023/05/02 04:13:23;;;;;;;8.73;7.82;;;13.90;99.90;;;;;;5035975;28;20107;-64
2023/05/02 04:15:49;;;;;;;8.52;7.60;;;14.10;99.90;;;;;;5036379;28;20036;-64
2023/05/02 04:18:14;;;;;;;9.13;7.32;;;14.10;99.90;;;;;;5036908;28;20037;-64
2023/05/02 04:20:43;;;;;;;8.38;7.15;;;14.10;99.90;;;;;;5035483;28;20067;-63
2023/05/02 04:23:09;;;;;;;6.70;6.00;;;14.00;99.90;;;;;;5033173;28;20025;-63
2023/05/02 04:25:35;;;;;;;9.23;7.47;;;14.00;99.90;;;;;;5036094;28;20124;-63
2023/05/02 04:28:00;;;;;;;7.55;6.78;;;14.00;99.90;;;;;;5035929;28;20144;-64
2023/05/02 04:30:26;;;;;;;8.20;6.88;;;14.00;99.90;;;;;;5034905;28;20403;-64
2023/05/02 04:32:52;;;;;;;7.55;6.80;;;14.10;99.90;;;;;;5035878;28;20101;-64
2023/05/02 04:35:18;;;;;;;8.32;7.03;;;14.10;99.90;;;;;;5035969;28;20029;-64
2023/05/02 04:37:43;;;;;;;6.78;5.82;;;14.10;99.90;;;;;;5036041;28;20425;-64
2023/05/02 04:40:10;;;;;;;7.75;6.90;;;14.00;99.90;;;;;;5036125;28;20076;-64
2023/05/02 04:42:36;;;;;;;7.95;7.15;;;14.00;99.90;;;;;;5035505;28;20034;-64
2023/05/02 04:45:01;;;;;;;8.52;6.82;;;14.20;99.90;;;;;;5035847;28;20030;-64
2023/05/02 04:47:27;;;;;;;9.20;7.18;;;14.20;99.90;;;;;;5021083;28;20104;-64
2023/05/02 04:49:53;;;;;;;6.28;5.70;;;14.10;99.90;;;;;;5035943;28;20537;-64
2023/05/02 04:52:18;;;;;;;8.10;7.30;;;14.10;99.90;;;;;;5035918;28;20025;-64
2023/05/02 04:54:44;;;;;;;7.78;6.97;;;14.10;99.90;;;;;;5032801;28;20040;-63
2023/05/02 04:57:10;;;;;;;8.48;7.57;;;14.20;99.90;;;;;;5034544;28;20128;-51
2023/05/02 04:59:37;;;;;;;7.45;6.75;;;14.20;99.90;;;;;;5035440;28;20021;-60
2023/05/02 05:02:03;;;;;;;7.03;6.05;;;14.10;99.90;;;;;;5033920;28;20548;-60
2023/05/02 05:04:28;;;;;;;6.15;5.55;;;14.00;99.90;;;;;;5030062;28;20075;-60
2023/05/02 05:06:54;;;;;;;6.75;6.10;;;13.80;99.90;;;;;;5035479;28;20479;-60
2023/05/02 05:09:20;;;;;;;10.18;7.78;;;13.80;99.90;;;;;;5035562;28;20061;-60
2023/05/02 05:11:45;;;;;;;8.00;6.88;;;14.00;99.90;;;;;;5035303;28;20421;-61
2023/05/02 05:14:11;;;;;;;10.02;8.40;;;14.10;99.90;;;;;;5035155;28;20033;-60
2023/05/02 05:16:37;;;;;;;11.75;8.35;;;14.00;99.90;;;;;;5035758;28;20422;-60
2023/05/02 05:19:03;;;;;;;9.43;7.60;;;14.10;99.90;;;;;;5031984;28;20037;-60
2023/05/02 05:21:29;;;;;;;7.75;6.82;;;14.10;99.90;;;;;;5034365;28;20112;-60
2023/05/02 05:23:55;;;;;;;6.97;6.28;;;13.90;99.90;;;;;;5034569;28;20034;-61
2023/05/02 05:26:22;;;;;;;7.22;6.10;;;14.10;99.90;;;;;;5035198;28;20025;-60
2023/05/02 05:28:49;;;;;;;6.25;5.65;;;13.90;99.90;;;;;;5035283;28;20390;-60
2023/05/02 05:31:16;;;;;;;8.18;6.50;;;14.00;99.90;;;;;;5032993;28;20056;-60
2023/05/02 05:33:42;;;;;;;6.63;5.75;;;14.10;99.90;;;;;;5035474;28;20116;-60
2023/05/02 05:36:10;;;;;;;10.40;7.07;;;14.10;99.90;;;;;;5034825;28;20037;-60
2023/05/02 05:38:35;;;;;;;8.10;6.35;;;14.20;99.90;;;;;;5034076;28;20053;-60
2023/05/02 05:41:01;;;;;;;7.13;6.22;;;14.30;99.90;;;;;;5034789;28;20080;-60
2023/05/02 05:43:28;;;;;;;7.07;5.95;;;14.30;99.90;;;;;;5034697;28;20637;-60
2023/05/02 05:45:54;;;;;;;7.75;6.72;;;14.40;99.90;;;;;;5035131;28;20032;-60
2023/05/02 05:48:21;;;;;;;6.95;6.25;;;14.40;99.90;;;;;;5034524;28;20060;-60
2023/05/02 05:50:46;;;;;;;7.97;6.97;;;14.30;99.90;;;;;;5034863;28;20052;-60
2023/05/02 05:53:13;;;;;;;10.00;7.82;;;14.40;99.90;;;;;;5034233;28;20463;-60
2023/05/02 05:55:39;;;;;;;6.80;6.05;;;14.50;99.90;;;;;;5034866;28;20640;-60
2023/05/02 05:58:05;;;;;;;6.82;6.13;;;14.50;99.90;;;;;;5034334;28;20037;-60
2023/05/02 06:00:35;;;;;;;8.88;7.95;;;14.40;99.90;;;;;;5034433;28;20076;-60
2023/05/02 06:03:01;;;;;;;8.02;6.85;;;14.50;99.90;;;;;;5032696;28;20039;-60
2023/05/02 06:05:26;;;;;;;7.88;6.20;;;14.50;99.90;;;;;;5034532;28;20026;-60
2023/05/02 06:07:52;;;;;;;6.97;5.40;;;14.40;99.90;;;;;;5032842;28;20128;-60
2023/05/02 06:10:18;;;;;;;12.38;6.10;;;14.50;99.90;;;;;;5045193;28;20402;-60
2023/05/02 06:12:43;;;;;;;6.70;6.00;;;14.60;99.90;;;;;;5036864;28;20382;-59
2023/05/02 06:15:09;;;;;;;9.40;6.55;;;14.60;99.90;;;;;;5033867;28;20040;-60
2023/05/02 06:17:35;;;;;;;8.90;6.60;;;14.70;99.90;;;;;;5043476;28;20033;-59
2023/05/02 06:20:00;;;;;;;14.75;7.07;;;14.70;99.90;;;;;;5050893;28;20017;-60
2023/05/02 06:22:26;;;;;;;8.60;5.60;;;14.70;99.90;;;;;;5044627;28;20071;-60
2023/05/02 06:24:52;;;;;;;9.50;5.72;;;14.60;99.90;;;;;;5051129;28;20017;-59
2023/05/02 06:27:17;;;;;;;8.48;5.68;;;14.50;99.90;;;;;;5050748;28;20033;-59
2023/05/02 06:29:43;;;;;;;9.60;6.65;;;14.50;99.90;;;;;;5045595;28;20483;-60
2023/05/02 06:32:08;;;;;;;10.40;6.65;;;14.50;99.90;;;;;;5048972;28;20078;-60
2023/05/02 06:34:34;;;;;;;9.02;6.07;;;14.60;99.90;;;;;;5048045;28;20025;-59
2023/05/02 06:37:00;;;;;;;7.38;6.68;;;14.70;99.90;;;;;;5046398;28;20363;-61
2023/05/02 06:39:25;;;;;;;10.15;7.57;;;14.80;99.90;;;;;;5048888;28;20071;-61
2023/05/02 06:41:56;;;;;;;8.13;7.43;;;14.90;99.90;;;;;;5044500;28;20059;-60
2023/05/02 06:44:22;;;;;;;11.60;7.30;;;14.90;99.90;;;;;;5051226;28;20467;-61
2023/05/02 06:46:48;;;;;;;10.43;7.20;;;14.90;99.90;;;;;;5043364;28;20025;-61
2023/05/02 06:49:14;;;;;;;9.57;7.80;;;14.90;99.90;;;;;;5051342;28;20028;-61
2023/05/02 06:51:40;;;;;;;8.77;7.88;;;15.10;99.90;;;;;;5046894;28;20021;-60
2023/05/02 06:54:06;;;;;;;10.48;7.90;;;15.00;99.90;;;;;;5046676;28;20059;-61
2023/05/02 06:56:31;;;;;;;8.77;6.50;;;15.10;99.90;;;;;;5049171;28;20029;-61
2023/05/02 06:58:57;;;;;;;6.65;6.05;;;14.90;99.90;;;;;;5049914;28;20039;-60
2023/05/02 07:01:23;;;;;;;7.13;6.13;;;14.90;99.90;;;;;;5046483;28;20071;-60
2023/05/02 07:03:48;;;;;;;9.07;7.22;;;14.90;65.30;;;;;;5048766;28;20112;-60
2023/05/02 07:06:14;;;;;;;7.95;5.78;;;15.00;54.90;;;;;;5047355;28;20044;-60
2023/05/02 07:08:40;;;;;;;6.53;5.85;;;15.00;39.60;;;;;;5040623;28;20025;-60
2023/05/02 07:11:06;;;;;;;7.18;6.57;;;15.00;32.60;;;;;;5036196;28;20029;-61
2023/05/02 07:13:31;;;;;;;6.78;5.80;;;15.30;30.60;;;;;;5048006;28;20024;-60
2023/05/02 07:15:57;;;;;;;7.65;6.40;;;15.50;27.10;;;;;;5046398;28;20422;-60
2023/05/02 07:18:23;;;;;;;7.80;7.00;;;15.60;25.30;;;;;;5047565;28;20037;-61
2023/05/02 07:20:49;;;;;;;6.78;5.35;;;15.90;24.00;;;;;;5051725;28;20099;-61
2023/05/02 07:23:14;;;;;;;5.45;4.95;;;15.80;20.40;;;;;;5048317;28;20025;-61
2023/05/02 07:25:40;;;;;;;5.75;5.25;;;15.90;18.70;;;;;;5046857;28;20070;-61
2023/05/02 07:28:06;;;;;;;5.72;5.13;;;15.90;17.40;;;;;;5038626;28;20014;-60
2023/05/02 07:30:32;;;;;;;6.43;5.00;;;16.10;16.40;;;;;;5049738;28;20044;-61
2023/05/02 07:32:57;;;;;;;6.22;5.28;;;16.30;15.70;;;;;;5049227;28;20032;-60
2023/05/02 07:35:23;;;;;;;5.35;4.85;;;16.30;14.40;;;;;;5040050;28;20356;-61
2023/05/02 07:37:48;;;;;;;5.97;5.30;;;16.30;12.50;;;;;;5042795;28;20029;-61
2023/05/02 07:40:14;;;;;;;5.13;4.70;;;16.40;11.80;;;;;;5044969;28;20103;-61
2023/05/02 07:42:40;;;;;;;7.35;4.97;;;16.40;9.50;;;;;;5040637;28;20043;-61
2023/05/02 07:45:07;;;;;;;7.85;5.65;;;16.50;8.60;;;;;;5034392;28;20028;-61
2023/05/02 07:47:33;;;;;;;5.88;5.07;;;16.60;7.80;;;;;;5049177;28;20028;-61
2023/05/02 07:49:58;;;;;;;6.00;4.40;;;16.50;4.10;;;;;;5039836;28;20100;-61
2023/05/02 07:52:24;;;;;;;5.07;4.60;;;16.60;4.10;;;;;;5038136;28;20037;-61
2023/05/02 07:54:50;;;;;;;7.32;4.60;;;16.60;1.00;;;;;;5032333;28;20076;-61
2023/05/02 07:57:17;;;;;;;5.75;4.90;;;16.50;1.50;;;;;;5043735;28;20041;-61
2023/05/02 07:59:42;;;;;;;6.88;4.68;;;16.50;1.00;;;;;;5043645;28;20561;-61
2023/05/02 08:02:08;;;;;;;5.60;5.10;;;16.50;1.00;;;;;;5037293;28;20033;-61
2023/05/02 08:04:34;;;;;;;6.22;4.20;;;16.50;1.30;;;;;;5032904;28;20088;-61
2023/05/02 08:07:00;;;;;;;6.05;4.43;;;16.60;1.10;;;;;;5032101;28;20108;-61
2023/05/02 08:09:25;;;;;;;5.65;5.00;;;16.70;1.00;;;;;;5030555;28;20029;-61
2023/05/02 08:11:51;;;;;;;7.43;4.90;;;16.60;1.00;;;;;;5031259;28;20028;-61
2023/05/02 08:14:17;;;;;;;7.47;5.40;;;16.70;1.00;;;;;;5032718;28;20025;-61
2023/05/02 08:16:43;;;;;;;8.07;5.32;;;16.70;1.00;;;;;;5031100;28;20519;-61
2023/05/02 08:19:09;;;;;;;5.95;5.35;;;16.70;1.00;;;;;;5031234;28;20018;-61
2023/05/02 08:21:35;;;;;;;7.28;5.82;;;16.80;1.00;;;;;;5018667;28;20033;-61
2023/05/02 08:24:01;;;;;;;6.70;4.85;;;16.80;1.00;;;;;;5030598;28;20025;-61
2023/05/02 08:26:27;;;;;;;6.68;5.22;;;16.70;1.00;;;;;;5032406;28;20152;-61
2023/05/02 08:28:53;;;;;;;5.18;4.47;;;16.70;1.00;;;;;;5030560;28;20026;-61
2023/05/02 08:31:19;;;;;;;6.15;4.00;;;16.70;1.00;;;;;;5031433;28;20519;-61
2023/05/02 08:33:45;;;;;;;4.07;3.55;;;16.60;1.00;;;;;;5032293;28;20545;-61
2023/05/02 08:36:13;;;;;;;3.95;3.65;;;16.60;1.00;;;;;;5031480;28;20061;-61
2023/05/02 08:38:38;;;;;;;3.20;3.00;;;16.70;1.00;;;;;;5036047;28;20136;-61
2023/05/02 08:41:17;;;;;;;4.35;3.72;;;16.60;1.00;;;;;;5044333;28;20574;-61
2023/05/02 08:43:47;;;;;;;4.55;3.97;;;16.70;1.00;;;;;;5075611;28;20033;-61
2023/05/02 08:46:15;;;;;;;3.85;3.50;;;16.70;1.00;;;;;;5039081;28;20020;-62
2023/05/02 08:48:42;;;;;;;5.80;3.72;;;16.80;1.00;;;;;;5031535;28;20026;-61
2023/05/02 08:51:10;;;;;;;5.05;3.83;;;16.80;1.00;;;;;;5031646;28;20056;-61
2023/05/02 08:53:37;;;;;;;4.38;3.97;;;17.00;1.00;;;;;;5032525;28;20387;-61
2023/05/02 08:56:03;;;;;;;4.47;3.78;;;17.00;1.00;;;;;;5029675;28;20160;-61
2023/05/02 08:58:29;;;;;;;4.60;3.38;;;17.00;1.00;;;;;;5027432;28;20136;-61
2023/05/02 09:00:57;;;;;;;5.85;3.45;;;16.90;1.00;;;;;;5041237;28;20487;-61
2023/05/02 09:03:34;;;;;;;5.07;3.97;;;17.00;1.00;;;;;;5051662;28;20086;-61
2023/05/02 09:06:15;;;;;;;5.32;4.20;;;17.10;1.00;;;;;;5048681;28;20021;-61
2023/05/02 09:08:43;;;;;;;7.70;3.97;;;17.10;1.00;;;;;;5047773;28;20021;-61
2023/05/02 09:11:10;;;;;;;4.50;3.85;;;17.10;1.00;;;;;;5047734;28;20033;-61
2023/05/02 09:13:40;;;;;;;4.80;2.95;;;17.10;1.00;;;;;;5052757;28;20021;-61
2023/05/02 09:16:10;;;;;;;3.53;3.17;;;17.00;1.00;;;;;;5046469;28;20024;-61
2023/05/02 09:18:46;;;;;;;3.55;2.95;;;17.00;1.00;;;;;;5045568;28;20033;-60
2023/05/02 09:21:18;;;;;;;3.15;2.63;;;17.00;1.00;;;;;;5044204;28;20021;-60
2023/05/02 09:23:45;;;;;;;2.50;2.30;;;17.00;1.00;;;;;;5051216;28;20091;-61
2023/05/02 09:26:23;;;;;;;3.88;2.58;;;16.90;1.00;;;;;;5048909;28;20045;-61
2023/05/02 09:28:53;;;;;;;4.75;2.67;;;17.00;1.00;;;;;;5045156;28;20158;-60
2023/05/02 09:31:21;;;;;;;4.70;3.13;;;17.00;1.00;;;;;;5039946;28;20099;-60
2023/05/02 09:33:48;;;;;;;3.25;2.30;;;17.10;1.00;;;;;;5050177;28;20057;-60
2023/05/02 09:36:18;;;;;;;1.85;1.70;;;17.10;1.00;;;;;;5051656;28;20348;-61
2023/05/02 09:38:46;;;;;;;5.05;1.75;;;17.10;1.00;;;;;;5047876;28;20570;-61
2023/05/02 09:41:12;;;;;;;4.90;2.10;;;17.10;1.00;;;;;;5050945;28;20112;-61
2023/05/02 09:43:39;;;;;;;3.35;2.08;;;17.30;1.00;;;;;;5047921;28;20032;-60
2023/05/02 09:46:07;;;;;;;3.92;2.40;;;17.40;1.00;;;;;;5046812;28;20021;-61
2023/05/02 09:48:55;;;;;;;3.05;2.05;;;17.50;1.00;;;;;;5051453;28;20037;-61
2023/05/02 09:51:25;;;;;;;3.28;2.17;;;17.60;1.00;;;;;;5034802;28;20048;-61
2023/05/02 09:53:51;;;;;;;2.25;1.58;;;17.70;1.00;;;;;;5038865;28;20383;-61
2023/05/02 09:56:17;;;;;;;2.50;2.03;;;18.10;1.00;;;;;;5046219;28;20028;-61
2023/05/02 09:58:43;;;;;;;2.30;2.10;;;18.30;1.00;;;;;;5051540;28;20399;-61
2023/05/02 10:01:15;;;;;;;2.47;2.28;;;18.30;1.00;;;;;;5050587;28;20024;-61
2023/05/02 10:03:41;;;;;;;3.45;2.03;;;18.50;1.00;;;;;;5045325;28;20033;-61
2023/05/02 10:06:08;;;;;;;4.50;2.13;;;18.80;1.00;;;;;;5032656;28;20108;-61
2023/05/02 10:08:34;;;;;;;4.25;2.03;;;18.80;1.00;;;;;;5038517;28;20164;-61
2023/05/02 10:11:04;;;;;;;3.75;2.00;;;19.00;1.00;;;;;;5035383;28;20040;-60
2023/05/02 10:13:33;;;;;;;2.10;1.80;;;19.10;1.00;;;;;;5032204;28;20104;-61
2023/05/02 10:16:05;;;;;;;2.03;1.92;;;19.10;1.00;;;;;;5035673;28;20040;-61
2023/05/02 10:18:54;;;;;;;2.03;1.77;;;19.30;1.00;;;;;;5034913;28;20394;-61
2023/05/02 10:21:26;;;;;;;3.58;1.80;;;19.30;1.00;;;;;;5035357;28;20114;-61
2023/05/02 10:23:53;;;;;;;2.33;1.67;;;19.30;1.00;;;;;;5038971;28;20044;-61
2023/05/02 10:26:22;;;;;;;2.25;1.85;;;19.50;1.00;;;;;;5035368;28;20029;-61
2023/05/02 10:28:50;;;;;;;3.00;2.50;;;19.40;1.00;;;;;;5034543;28;20033;-61
2023/05/02 10:31:18;;;;;;;2.05;1.85;;;19.50;1.00;;;;;;5034255;28;20433;-61
2023/05/02 10:33:49;;;;;;;3.63;2.70;;;19.50;1.00;;;;;;5038609;28;20025;-62
2023/05/02 10:36:18;;;;;;;2.10;1.70;;;19.50;1.00;;;;;;5032607;28;20025;-61
2023/05/02 10:38:44;;;;;;;1.90;1.80;;;19.50;1.00;;;;;;5037790;28;20092;-61
2023/05/02 10:41:30;;;;;;;1.60;1.50;;;19.30;1.00;;;;;;5036159;28;20432;-61
2023/05/02 10:43:57;;;;;;;1.65;1.55;;;19.20;1.00;;;;;;5038695;28;20026;-61
2023/05/02 10:46:39;;;;;;;1.92;1.70;;;19.20;1.00;;;;;;5035603;28;20105;-61
2023/05/02 10:49:10;;;;;;;3.65;1.80;;;19.10;1.00;;;;;;5037176;28;20037;-61
2023/05/02 10:51:37;;;;;;;1.88;1.48;;;19.10;1.00;;;;;;5046060;28;20025;-61
2023/05/02 10:54:22;;;;;;;1.52;1.23;;;19.20;1.00;;;;;;5030373;28;20406;-61
2023/05/02 10:59:40;;;;;;;2.08;1.05;;;19.30;1.00;;;;;;5033167;28;20483;-60
2023/05/02 11:02:24;;;;;;;0.55;0.55;;;19.20;1.00;;;;;;5031825;28;20043;-60
2023/05/02 11:05:02;;;;;;;1.13;1.00;;;19.30;1.00;;;;;;5032356;28;20403;-60
2023/05/02 11:07:28;;;;;;;2.42;1.00;;;19.60;1.00;;;;;;5032006;28;20037;-60
2023/05/02 11:10:16;;;;;;;2.03;1.55;;;19.80;1.00;;;;;;5033451;28;20468;-60
2023/05/02 11:12:48;;;;;;;1.98;1.27;;;19.90;1.00;;;;;;5023997;28;20038;-60
2023/05/02 11:15:20;;;;;;;2.63;1.63;;;20.10;1.00;;;;;;5032728;28;20021;-60
2023/05/02 11:18:06;;;;;;;1.63;1.20;;;20.20;1.00;;;;;;5019947;28;20487;-60
2023/05/02 11:20:33;;;;;;;1.67;1.20;;;20.10;1.00;;;;;;5030775;28;20037;-60
2023/05/02 11:23:24;;;;;;;4.05;1.48;;;20.10;1.00;;;;;;5020104;28;20033;-60
2023/05/02 11:25:51;;;;;;;4.30;1.55;;;20.30;1.00;;;;;;5030653;28;20038;-60
2023/05/02 11:28:35;;;;;;;1.58;1.10;;;20.50;1.00;;;;;;5032979;28;20028;-60
2023/05/02 11:31:02;;;;;;;1.17;1.08;;;20.80;1.00;;;;;;5028394;28;20052;-60
2023/05/02 11:33:28;;;;;;;1.23;1.13;;;21.00;1.00;;;;;;5031889;28;20578;-60
2023/05/02 11:35:56;;;;;;;1.40;1.30;;;21.10;1.00;;;;;;5031685;28;20033;-60
2023/05/02 11:38:22;;;;;;;1.88;1.02;;;21.30;1.00;;;;;;5032650;28;20118;-60
2023/05/02 11:40:56;;;;;;;1.58;1.40;;;21.30;1.00;;;;;;5032991;28;20483;-60
2023/05/02 11:43:26;;;;;;;2.85;1.30;;;21.30;1.00;;;;;;5031432;28;20028;-60
2023/05/02 11:45:54;;;;;;;2.20;1.02;;;21.50;1.00;;;;;;5031706;28;20132;-61
2023/05/02 11:48:21;;;;;;;1.25;1.20;;;21.70;1.00;;;;;;5032193;28;20547;-61
2023/05/02 11:50:51;;;;;;;1.42;1.00;;;21.90;1.00;;;;;;5033835;28;20055;-60
2023/05/02 11:53:25;;;;;;;1.92;1.40;;;22.60;1.00;;;;;;5032717;28;20014;-61
2023/05/02 11:55:53;;;;;;;1.38;1.17;;;24.30;1.00;;;;;;5032305;28;20503;-61
2023/05/02 11:58:21;;;;;;;1.83;1.10;;;29.10;1.00;;;;;;5031607;28;20403;-60
2023/05/02 12:00:48;;;;;;;1.42;1.30;;;31.20;1.00;;;;;;5028862;28;20064;-61
2023/05/02 12:03:24;;;;;;;3.33;1.95;;;32.70;1.00;;;;;;5031548;28;20026;-61
2023/05/02 12:05:50;;;;;;;1.90;1.65;;;34.20;1.00;;;;;;5019432;28;20425;-61
2023/05/02 12:08:28;;;;;;;1.40;1.30;;;35.40;1.00;;;;;;5031069;28;20029;-61
2023/05/02 12:10:55;;;;;;;2.08;1.40;;;34.50;1.00;;;;;;5032013;28;20371;-61
2023/05/02 12:13:23;;;;;;;1.60;1.50;;;34.30;1.00;;;;;;5032631;28;20040;-61
2023/05/02 12:15:50;;;;;;;1.83;1.70;;;36.00;1.00;;;;;;5031010;28;20026;-62
2023/05/02 12:18:17;;;;;;;1.95;1.73;;;37.20;1.00;;;;;;5032358;28;20472;-60
2023/05/02 12:20:43;;;;;;;6.47;5.85;;;38.30;1.00;;;;;;5032581;28;20022;-60
2023/05/02 12:23:10;;;;;;;1.60;1.50;;;39.60;1.00;;;;;;5030189;28;20364;-60
2023/05/02 12:25:38;;;;;;;1.35;1.35;;;40.80;1.00;;;;;;5021752;28;20013;-60
2023/05/02 12:28:03;;;;;;;1.80;1.70;;;41.10;1.00;;;;;;5030646;28;20025;-60
2023/05/02 12:30:30;;;;;;;1.90;1.60;;;41.60;1.00;;;;;;5032350;28;20325;-60
2023/05/02 12:33:00;;;;;;;1.80;1.70;;;41.30;99.90;;;;;;5033017;28;20029;-60
2023/05/02 12:35:27;;;;;;;1.83;1.70;;;41.20;99.90;;;;;;5030346;28;20030;-60
2023/05/02 12:37:53;;;;;;;1.60;1.60;;;39.80;1.00;;;;;;5038400;28;20432;-60
2023/05/02 12:40:19;;;;;;;1.70;1.70;;;39.30;1.00;;;;;;5033944;28;20046;-60
2023/05/02 12:43:04;;;;;;;2.05;1.95;;;39.20;1.00;;;;;;5034348;28;20032;-60
2023/05/02 12:45:33;;;;;;;1.90;1.80;;;40.10;99.90;;;;;;5036175;28;20076;-60
2023/05/02 12:48:23;;;;;;;2.50;2.38;;;41.50;99.90;;;;;;5035341;28;20360;-60
2023/05/02 12:50:50;;;;;;;3.00;2.70;;;41.90;99.90;;;;;;5044491;28;20033;-60
2023/05/02 12:53:16;;;;;;;2.92;2.38;;;41.80;99.90;;;;;;5034011;28;20034;-60
2023/05/02 12:55:42;;;;;;;2.15;2.10;;;41.40;99.90;;;;;;5036233;28;20032;-60
2023/05/02 12:58:12;;;;;;;2.00;1.90;;;41.80;99.90;;;;;;5032558;28;20087;-60
2023/05/02 13:00:40;;;;;;;3.00;2.80;;;42.90;99.90;;;;;;5035390;28;20029;-60
2023/05/02 13:03:07;;;;;;;4.35;3.83;;;42.90;99.90;;;;;;5034281;28;20025;-60